Terminal Aerodrome Forecast
Issued by NWS

Home | Current Version | Previous Version | Text Only | Print | Product List | Glossary On
Versions: 1 2 3 4 5 6 7 8 9 10 11 12 13 14 15 16 17 18 19 20 21
000
FTUS43 KICT 290915 AAA
TAFSLN
TAF AMD
KSLN 290915Z 2909/3006 04011KT P6SM SCT020 OVC040
      TEMPO 2910/2914 5SM -RA BR BKN020 OVC035
     FM291700 07017KT P6SM OVC025=

USA.gov is the U.S. government's official web portal to all federal, state and local government web resources and services.